createdAt,value
2024-04-18T00:01:32.092Z,100629.94
2024-04-18T00:05:33.694Z,100630.91
2024-04-18T00:09:35.325Z,100623.19
2024-04-18T00:13:36.955Z,100628.47
2024-04-18T00:17:38.705Z,100637.59
2024-04-18T00:21:40.413Z,100635.91
2024-04-18T00:25:41.995Z,100635.50
2024-04-18T00:29:44.367Z,100637.16
2024-04-18T00:33:48.350Z,100636.59
2024-04-18T00:37:50.067Z,100635.22
2024-04-18T00:41:51.693Z,100637.03
2024-04-18T00:45:55.949Z,100641.53
2024-04-18T00:49:59.368Z,100643.47
2024-04-18T00:54:01.718Z,100640.09
2024-04-18T00:58:03.760Z,100650.84
2024-04-18T01:02:05.454Z,100655.25
2024-04-18T01:06:08.617Z,100658.25
2024-04-18T01:10:10.492Z,100656.53
2024-04-18T01:14:13.225Z,100657.69
2024-04-18T01:18:15.087Z,100659.56
2024-04-18T01:22:17.119Z,100657.81
2024-04-18T01:26:19.973Z,100659.50
2024-04-18T01:30:21.658Z,100662.66
2024-04-18T01:34:23.331Z,100666.56
2024-04-18T01:38:24.974Z,100664.34
2024-04-18T01:42:26.663Z,100669.94
2024-04-18T01:46:28.261Z,100668.09
2024-04-18T01:50:29.933Z,100673.97
2024-04-18T01:54:31.783Z,100674.81
2024-04-18T01:58:33.431Z,100679.22
2024-04-18T02:02:35.042Z,100680.97
2024-04-18T02:06:36.726Z,100682.84
2024-04-18T02:10:38.366Z,100680.91
2024-04-18T02:14:41.616Z,100682.47
2024-04-18T02:18:43.246Z,100696.78
2024-04-18T02:22:44.954Z,100694.09
2024-04-18T02:26:46.597Z,100693.16
2024-04-18T02:30:48.331Z,100697.56
2024-04-18T02:34:50.031Z,100695.38
2024-04-18T02:38:51.669Z,100704.03
2024-04-18T02:42:53.270Z,100706.75
2024-04-18T02:46:54.892Z,100709.28
2024-04-18T02:50:56.484Z,100723.69
2024-04-18T02:54:58.076Z,100723.56
2024-04-18T02:59:00.450Z,100726.03
2024-04-18T03:03:02.171Z,100722.13
2024-04-18T03:07:03.796Z,100721.50
2024-04-18T03:11:05.446Z,100719.81
2024-04-18T03:15:07.320Z,100725.75
2024-04-18T03:19:12.952Z,100718.41
2024-04-18T03:23:14.747Z,100735.00
2024-04-18T03:27:16.339Z,100735.63
2024-04-18T03:31:17.991Z,100726.00
2024-04-18T03:35:19.529Z,100740.66
2024-04-18T03:39:21.707Z,100750.50
2024-04-18T03:43:23.405Z,100742.94
2024-04-18T03:47:25.175Z,100751.72
2024-04-18T03:51:28.984Z,100752.66
2024-04-18T03:55:30.782Z,100753.31
2024-04-18T03:59:32.607Z,100755.81
2024-04-18T04:03:34.384Z,100757.56
2024-04-18T04:07:36.055Z,100769.94
2024-04-18T04:11:37.721Z,100763.69
2024-04-18T04:15:39.375Z,100772.59
2024-04-18T04:19:41.009Z,100771.88
2024-04-18T04:23:43.169Z,100778.59
2024-04-18T04:27:44.828Z,100788.94
2024-04-18T04:31:46.756Z,100782.66
2024-04-18T04:35:48.396Z,100796.91
2024-04-18T04:39:50.358Z,100800.78
2024-04-18T04:43:52.042Z,100805.50
2024-04-18T04:47:53.734Z,100804.06
2024-04-18T04:51:55.452Z,100817.03
2024-04-18T04:55:57.090Z,100814.19
2024-04-18T04:59:58.702Z,100821.97
2024-04-18T05:04:00.522Z,100821.38
2024-04-18T05:08:02.171Z,100822.41
2024-04-18T05:12:04.135Z,100824.59
2024-04-18T05:16:06.468Z,100844.66
2024-04-18T05:20:08.818Z,100846.94
2024-04-18T05:24:10.499Z,100861.56
2024-04-18T05:28:14.346Z,100862.00
2024-04-18T05:32:16.020Z,100869.38
2024-04-18T05:36:17.637Z,100873.06
2024-04-18T05:40:19.672Z,100876.28
2024-04-18T05:44:21.314Z,100877.81
2024-04-18T05:48:22.989Z,100879.09
2024-04-18T05:52:24.659Z,100883.66
2024-04-18T05:56:26.269Z,100889.72
2024-04-18T06:00:27.964Z,100886.44
2024-04-18T06:04:30.038Z,100889.66
2024-04-18T06:08:31.708Z,100884.97
2024-04-18T06:12:33.401Z,100892.97
2024-04-18T06:16:35.334Z,100896.09
2024-04-18T06:20:48.177Z,100915.16
2024-04-18T06:24:51.684Z,100912.47
2024-04-18T06:28:53.332Z,100917.69
2024-04-18T06:32:54.993Z,100918.34
2024-04-18T06:36:56.786Z,100919.34
2024-04-18T06:40:58.403Z,100926.75
2024-04-18T06:45:00.034Z,100932.50
2024-04-18T06:49:02.076Z,100924.09
2024-04-18T06:53:04.172Z,100933.03
2024-04-18T06:57:06.095Z,100936.19
2024-04-18T07:01:07.707Z,100928.03
2024-04-18T07:05:09.461Z,100938.81
2024-04-18T07:09:11.140Z,100940.72
2024-04-18T07:13:12.797Z,100949.59
2024-04-18T07:17:14.413Z,100948.66
2024-04-18T07:21:16.524Z,100960.16
2024-04-18T07:25:18.328Z,100950.63
2024-04-18T07:29:20.036Z,100957.78
2024-04-18T07:33:21.760Z,100954.91
2024-04-18T07:37:23.788Z,100961.66
2024-04-18T07:41:25.506Z,100959.38
2024-04-18T07:45:27.297Z,100951.59
2024-04-18T07:49:28.932Z,100966.75
2024-04-18T07:53:30.520Z,100970.09
2024-04-18T07:57:32.597Z,100975.31
2024-04-18T08:01:38.161Z,100973.13
2024-04-18T08:05:42.551Z,100976.97
2024-04-18T08:09:48.295Z,100971.97
2024-04-18T08:13:55.320Z,100979.97
2024-04-18T08:17:59.541Z,100983.88
2024-04-18T08:22:03.343Z,100973.38
2024-04-18T08:26:06.435Z,100983.13
2024-04-18T08:30:08.629Z,100988.13
2024-04-18T08:34:16.591Z,100975.13
2024-04-18T08:38:20.001Z,100982.94
2024-04-18T08:42:24.124Z,100983.81
2024-04-18T08:46:26.422Z,100985.13
2024-04-18T08:50:30.039Z,100986.66
2024-04-18T08:54:33.999Z,100976.78
2024-04-18T08:58:35.886Z,100986.66
2024-04-18T09:02:37.609Z,100971.75
2024-04-18T09:06:39.297Z,100962.09
2024-04-18T09:10:41.756Z,100968.94
2024-04-18T09:14:43.437Z,100980.03
2024-04-18T09:18:45.648Z,100986.47
2024-04-18T09:22:47.261Z,100976.88
2024-04-18T09:26:51.129Z,100970.16
2024-04-18T09:30:56.963Z,100983.78
2024-04-18T09:34:59.277Z,100978.81
2024-04-18T09:39:03.227Z,100983.13
2024-04-18T09:43:19.831Z,100977.78
2024-04-18T09:47:24.097Z,100977.94
2024-04-18T09:51:26.560Z,100972.59
2024-04-18T09:55:30.702Z,100977.31
2024-04-18T09:59:33.651Z,100977.19
2024-04-18T10:03:36.339Z,100983.03
2024-04-18T10:07:38.780Z,100986.47
2024-04-18T10:11:41.399Z,100979.44
2024-04-18T10:15:43.029Z,100980.63
2024-04-18T10:19:46.252Z,100992.66
2024-04-18T10:23:52.529Z,100992.84
2024-04-18T10:27:54.136Z,100991.97
2024-04-18T10:31:56.011Z,100992.41
2024-04-18T10:36:01.075Z,100990.78
2024-04-18T10:40:04.996Z,100994.16
2024-04-18T10:44:06.991Z,100988.81
2024-04-18T10:48:08.918Z,100994.69
2024-04-18T10:52:12.121Z,100989.34
2024-04-18T10:56:14.416Z,100989.25
2024-04-18T11:00:17.650Z,100991.31
2024-04-18T11:04:20.293Z,100995.53
2024-04-18T11:08:21.967Z,100995.31
2024-04-18T11:12:23.666Z,100991.22
2024-04-18T11:16:28.580Z,100993.25
2024-04-18T11:20:30.779Z,100996.69
2024-04-18T11:24:34.580Z,101004.72
2024-04-18T11:28:36.188Z,100996.00
2024-04-18T11:32:38.020Z,101001.69
2024-04-18T11:36:39.760Z,100999.03
2024-04-18T11:40:41.420Z,100989.78
2024-04-18T11:44:43.280Z,100995.03
2024-04-18T11:48:45.032Z,100999.56
2024-04-18T11:52:46.704Z,100986.41
2024-04-18T11:56:48.393Z,100986.66
2024-04-18T12:00:50.100Z,100986.66
2024-04-18T12:04:51.759Z,100971.84
2024-04-18T12:08:55.100Z,100981.66
2024-04-18T12:12:57.203Z,100975.91
2024-04-18T12:16:59.218Z,100973.25
2024-04-18T12:21:00.866Z,100964.03
2024-04-18T12:25:05.930Z,100969.09
2024-04-18T12:29:08.974Z,100969.72
2024-04-18T12:33:13.442Z,100961.28
2024-04-18T12:37:15.039Z,100967.25
2024-04-18T12:41:16.707Z,100970.25
2024-04-18T12:45:18.385Z,100976.56
2024-04-18T12:49:20.273Z,100959.13
2024-04-18T12:53:23.942Z,100960.66
2024-04-18T12:57:25.598Z,100952.66
2024-04-18T13:01:27.338Z,100947.16
2024-04-18T13:05:29.040Z,100942.44
2024-04-18T13:09:34.448Z,100954.34
2024-04-18T13:13:36.320Z,100947.22
2024-04-18T13:17:37.928Z,100944.00
2024-04-18T13:21:40.426Z,100962.75
2024-04-18T13:25:42.246Z,100946.47
2024-04-18T13:29:43.870Z,100941.56
2024-04-18T13:33:46.925Z,100932.41
2024-04-18T13:37:48.709Z,100934.31
2024-04-18T13:41:51.400Z,100933.75
2024-04-18T13:45:53.879Z,100936.09
2024-04-18T13:49:57.433Z,100947.94
2024-04-18T13:53:59.033Z,100928.84
2024-04-18T13:58:00.644Z,100919.72
2024-04-18T14:02:04.135Z,100916.31
2024-04-18T14:06:08.153Z,100922.13
2024-04-18T14:10:09.810Z,100928.97
2024-04-18T14:14:11.617Z,100921.34
2024-04-18T14:18:31.907Z,100913.44
2024-04-18T14:22:33.663Z,100925.66
2024-04-18T14:26:35.313Z,100917.63
2024-04-18T14:30:39.771Z,100922.81
2024-04-18T14:34:41.429Z,100916.81
2024-04-18T14:38:43.099Z,100913.91
2024-04-18T14:42:44.852Z,100915.94
2024-04-18T14:46:46.554Z,100905.09
2024-04-18T14:50:54.823Z,100916.13
2024-04-18T14:54:56.432Z,100897.88
2024-04-18T14:58:59.317Z,100896.06
2024-04-18T15:03:01.118Z,100889.34
2024-04-18T15:07:02.808Z,100902.56
2024-04-18T15:11:04.583Z,100911.22
2024-04-18T15:15:08.939Z,100902.09
2024-04-18T15:19:10.592Z,100908.25
2024-04-18T15:23:12.348Z,100900.66
2024-04-18T15:27:13.993Z,100897.47
2024-04-18T15:31:15.685Z,100906.13
2024-04-18T15:35:18.075Z,100896.69
2024-04-18T15:39:19.886Z,100901.59
2024-04-18T15:43:21.472Z,100909.66
2024-04-18T15:47:23.267Z,100890.97
2024-04-18T15:51:25.035Z,100899.16
2024-04-18T15:55:26.720Z,100913.91
2024-04-18T15:59:28.331Z,100903.56
2024-04-18T16:03:30.070Z,100896.59
2024-04-18T16:07:31.896Z,100894.84
2024-04-18T16:11:33.571Z,100897.59
2024-04-18T16:15:35.299Z,100896.13
2024-04-18T16:19:36.984Z,100895.66
2024-04-18T16:23:38.970Z,100903.06
2024-04-18T16:27:40.662Z,100903.97
2024-04-18T16:31:42.443Z,100892.44
2024-04-18T16:35:44.477Z,100897.72
2024-04-18T16:39:46.261Z,100903.41
2024-04-18T16:43:48.006Z,100904.56
2024-04-18T16:47:49.773Z,100890.25
2024-04-18T16:51:52.562Z,100885.66
2024-04-18T16:55:54.248Z,100883.41
2024-04-18T16:59:55.906Z,100897.59
2024-04-18T17:03:58.020Z,100892.81
2024-04-18T17:08:00.354Z,100899.09
2024-04-18T17:12:02.225Z,100895.78
2024-04-18T17:16:07.147Z,100886.50
2024-04-18T17:20:09.385Z,100891.41
2024-04-18T17:24:11.199Z,100884.63
2024-04-18T17:28:12.871Z,100882.16
2024-04-18T17:32:14.594Z,100890.09
2024-04-18T17:36:16.531Z,100889.44
2024-04-18T17:40:18.331Z,100897.41
2024-04-18T17:44:20.172Z,100886.69
2024-04-18T17:48:22.069Z,100886.75
2024-04-18T17:52:23.801Z,100895.66
2024-04-18T17:56:25.427Z,100900.16
2024-04-18T18:00:27.326Z,100888.25
2024-04-18T18:04:29.139Z,100897.75
2024-04-18T18:08:30.808Z,100896.72
2024-04-18T18:12:32.726Z,100902.41
2024-04-18T18:16:34.475Z,100903.31
2024-04-18T18:20:36.591Z,100906.47
2024-04-18T18:24:38.474Z,100906.47
2024-04-18T18:28:40.187Z,100905.97
2024-04-18T18:32:42.336Z,100905.31
2024-04-18T18:36:44.564Z,100911.03
2024-04-18T18:40:46.315Z,100911.72
2024-04-18T18:44:48.016Z,100905.50
2024-04-18T18:48:49.869Z,100903.50
2024-04-18T18:52:51.520Z,100906.31
2024-04-18T18:56:53.237Z,100917.16
2024-04-18T19:00:55.375Z,100919.50
2024-04-18T19:04:59.480Z,100934.53
2024-04-18T19:09:01.212Z,100933.91
2024-04-18T19:13:03.027Z,100932.06
2024-04-18T19:17:07.256Z,100935.63
2024-04-18T19:21:09.222Z,100934.78
2024-04-18T19:25:10.916Z,100928.78
2024-04-18T19:29:15.985Z,100928.44
2024-04-18T19:33:20.116Z,100921.44
2024-04-18T19:37:22.015Z,100912.69
2024-04-18T19:41:23.664Z,100913.56
2024-04-18T19:45:27.412Z,100900.78
2024-04-18T19:49:29.760Z,100897.31
2024-04-18T19:53:31.492Z,100890.94
2024-04-18T19:57:33.556Z,100891.38
2024-04-18T20:01:35.364Z,100889.06
2024-04-18T20:05:38.325Z,100885.41
2024-04-18T20:09:40.044Z,100889.78
2024-04-18T20:13:41.710Z,100888.50
2024-04-18T20:17:43.857Z,100890.38
2024-04-18T20:21:45.928Z,100890.53
2024-04-18T20:25:47.567Z,100896.09
2024-04-18T20:29:49.277Z,100895.00
2024-04-18T20:33:50.993Z,100899.72
2024-04-18T20:37:55.711Z,100898.06
2024-04-18T20:41:57.379Z,100895.69
2024-04-18T20:45:59.054Z,100890.97
2024-04-18T20:50:03.509Z,100889.69
2024-04-18T20:54:05.547Z,100897.91
2024-04-18T20:58:07.207Z,100895.00
2024-04-18T21:02:08.912Z,100894.66
2024-04-18T21:06:10.609Z,100894.53
2024-04-18T21:10:12.228Z,100895.06
2024-04-18T21:14:14.000Z,100884.78
2024-04-18T21:18:15.800Z,100883.88
2024-04-18T21:22:17.997Z,100872.84
2024-04-18T21:26:19.726Z,100887.22
2024-04-18T21:30:21.555Z,100882.09
2024-04-18T21:34:23.428Z,100879.53
2024-04-18T21:38:25.230Z,100885.63
2024-04-18T21:42:26.910Z,100880.84
2024-04-18T21:46:28.555Z,100878.09
2024-04-18T21:50:30.166Z,100874.94
2024-04-18T21:54:31.912Z,100874.56
2024-04-18T21:58:33.634Z,100881.38
2024-04-18T22:02:35.305Z,100876.56
2024-04-18T22:06:37.092Z,100866.91
2024-04-18T22:10:38.721Z,100860.28
2024-04-18T22:14:40.430Z,100862.72
2024-04-18T22:18:42.280Z,100850.44
2024-04-18T22:22:44.039Z,100844.13
2024-04-18T22:26:45.757Z,100841.34
2024-04-18T22:30:58.666Z,100849.16
2024-04-18T22:35:00.359Z,100848.03
2024-04-18T22:39:02.550Z,100839.97
2024-04-18T22:43:04.852Z,100833.44
2024-04-18T22:47:06.524Z,100838.72
2024-04-18T22:51:08.139Z,100836.66
2024-04-18T22:55:09.910Z,100830.75
2024-04-18T22:59:11.589Z,100827.47
2024-04-18T23:03:13.316Z,100831.28
2024-04-18T23:07:15.036Z,100817.44
2024-04-18T23:11:16.901Z,100819.88
2024-04-18T23:15:18.603Z,100805.50
2024-04-18T23:19:20.393Z,100812.19
2024-04-18T23:23:22.136Z,100807.13
2024-04-18T23:27:23.881Z,100803.75
2024-04-18T23:31:25.537Z,100805.13
2024-04-18T23:35:27.131Z,100789.22
2024-04-18T23:39:29.279Z,100795.66
2024-04-18T23:43:31.096Z,100782.00
2024-04-18T23:47:35.413Z,100777.56
2024-04-18T23:51:37.366Z,100784.06
2024-04-18T23:55:40.170Z,100775.53
2024-04-18T23:59:41.778Z,100777.81
